createdAt,value
2019-05-19T00:00:58.306Z,99.90
2019-05-19T00:03:25.940Z,99.90
2019-05-19T00:05:53.908Z,99.90
2019-05-19T00:08:22.129Z,99.90
2019-05-19T00:10:49.642Z,99.90
2019-05-19T00:13:17.163Z,99.90
2019-05-19T00:15:45.052Z,99.90
2019-05-19T00:18:12.549Z,99.90
2019-05-19T00:20:40.061Z,99.90
2019-05-19T00:23:08.125Z,99.90
2019-05-19T00:25:35.688Z,99.90
2019-05-19T00:28:03.837Z,99.90
2019-05-19T00:30:31.353Z,99.90
2019-05-19T00:32:58.906Z,99.90
2019-05-19T00:35:26.872Z,99.90
2019-05-19T00:37:54.487Z,99.90
2019-05-19T00:40:22.006Z,99.90
2019-05-19T00:42:49.456Z,99.90
2019-05-19T00:45:18.343Z,99.90
2019-05-19T00:47:45.975Z,99.90
2019-05-19T00:50:13.855Z,99.90
2019-05-19T00:52:41.620Z,99.90
2019-05-19T00:55:09.251Z,99.90
2019-05-19T00:57:37.259Z,99.90
2019-05-19T01:00:05.430Z,99.90
2019-05-19T01:02:33.541Z,99.90
2019-05-19T01:05:01.042Z,99.90
2019-05-19T01:07:29.090Z,99.90
2019-05-19T01:09:56.770Z,99.90
2019-05-19T01:12:24.900Z,99.90
2019-05-19T01:14:52.549Z,99.90
2019-05-19T01:17:20.209Z,99.90
2019-05-19T01:19:55.642Z,99.90
2019-05-19T01:22:17.331Z,99.90
2019-05-19T01:24:45.109Z,99.90
2019-05-19T01:27:12.543Z,99.90
2019-05-19T01:29:40.104Z,99.90
2019-05-19T01:32:08.001Z,99.90
2019-05-19T01:34:35.522Z,99.90
2019-05-19T01:37:03.361Z,99.90
2019-05-19T01:39:30.975Z,99.90
2019-05-19T01:41:58.504Z,99.90
2019-05-19T01:44:25.920Z,99.90
2019-05-19T01:46:53.489Z,99.90
2019-05-19T01:49:20.936Z,99.90
2019-05-19T01:51:48.563Z,99.90
2019-05-19T01:54:16.812Z,99.90
2019-05-19T01:56:44.356Z,99.90
2019-05-19T01:59:11.905Z,99.90
2019-05-19T02:01:39.670Z,99.90
2019-05-19T02:04:07.199Z,99.90
2019-05-19T02:06:34.755Z,99.90
2019-05-19T02:09:04.005Z,99.90
2019-05-19T02:11:31.478Z,99.90
2019-05-19T02:13:59.026Z,99.90
2019-05-19T02:16:26.687Z,99.90
2019-05-19T02:18:54.219Z,99.90
2019-05-19T02:21:22.604Z,99.90
2019-05-19T02:23:50.207Z,99.90
2019-05-19T02:26:17.862Z,99.90
2019-05-19T02:28:45.463Z,99.90
2019-05-19T02:31:13.118Z,99.90
2019-05-19T02:33:40.946Z,99.90
2019-05-19T02:36:08.737Z,99.90
2019-05-19T02:38:36.322Z,99.90
2019-05-19T02:41:04.375Z,99.90
2019-05-19T02:43:33.053Z,99.90
2019-05-19T02:46:00.809Z,99.90
2019-05-19T02:48:30.530Z,99.90
2019-05-19T02:50:59.065Z,99.90
2019-05-19T02:53:27.392Z,99.90
2019-05-19T02:55:55.345Z,99.90
2019-05-19T02:58:23.759Z,99.90
2019-05-19T03:00:51.698Z,99.90
2019-05-19T03:03:19.449Z,99.90
2019-05-19T03:05:47.058Z,99.90
2019-05-19T03:08:14.627Z,99.90
2019-05-19T03:10:42.676Z,99.90
2019-05-19T03:13:10.634Z,99.90
2019-05-19T03:15:38.470Z,99.90
2019-05-19T03:18:06.182Z,99.90
2019-05-19T03:20:34.008Z,99.90
2019-05-19T03:23:01.519Z,99.90
2019-05-19T03:25:29.021Z,99.90
2019-05-19T03:27:57.692Z,99.90
2019-05-19T03:30:47.894Z,99.90
2019-05-19T03:33:17.624Z,99.90
2019-05-19T03:35:45.146Z,99.90
2019-05-19T03:38:12.815Z,99.90
2019-05-19T03:40:40.226Z,99.90
2019-05-19T03:43:07.779Z,99.90
2019-05-19T03:45:36.011Z,99.90
2019-05-19T03:48:03.893Z,99.90
2019-05-19T03:50:31.720Z,99.90
2019-05-19T03:52:59.453Z,99.90
2019-05-19T03:55:26.958Z,99.90
2019-05-19T03:57:54.385Z,99.90
2019-05-19T04:00:22.563Z,99.90
2019-05-19T04:02:50.819Z,99.90
2019-05-19T04:05:18.591Z,99.90
2019-05-19T04:07:46.049Z,99.90
2019-05-19T04:10:14.241Z,99.90
2019-05-19T04:12:41.713Z,99.90
2019-05-19T04:15:09.458Z,99.90
2019-05-19T04:17:36.868Z,99.90
2019-05-19T04:20:04.994Z,99.90
2019-05-19T04:22:32.878Z,99.90
2019-05-19T04:25:00.351Z,99.90
2019-05-19T04:27:28.007Z,99.90
2019-05-19T04:29:56.303Z,99.90
2019-05-19T04:32:24.078Z,99.90
2019-05-19T04:34:52.042Z,99.90
2019-05-19T04:37:20.242Z,99.90
2019-05-19T04:39:47.714Z,99.90
2019-05-19T04:42:16.019Z,99.90
2019-05-19T04:44:43.743Z,99.90
2019-05-19T04:47:11.336Z,99.90
2019-05-19T04:49:39.307Z,99.90
2019-05-19T04:52:07.503Z,99.90
2019-05-19T04:54:35.313Z,99.90
2019-05-19T04:57:02.768Z,99.90
2019-05-19T04:59:30.364Z,99.90
2019-05-19T05:01:58.843Z,99.90
2019-05-19T05:04:29.309Z,99.90
2019-05-19T05:06:56.640Z,99.90
2019-05-19T05:09:24.197Z,99.90
2019-05-19T05:11:51.805Z,99.90
2019-05-19T05:14:19.274Z,99.90
2019-05-19T05:16:47.144Z,99.90
2019-05-19T05:19:14.777Z,99.90
2019-05-19T05:21:42.591Z,99.90
2019-05-19T05:24:10.078Z,99.90
2019-05-19T05:26:37.806Z,99.90
2019-05-19T05:29:05.256Z,99.90
2019-05-19T05:31:32.718Z,99.90
2019-05-19T05:34:00.554Z,99.90
2019-05-19T05:36:28.236Z,99.90
2019-05-19T05:38:55.641Z,99.90
2019-05-19T05:41:23.673Z,99.90
2019-05-19T05:43:51.525Z,99.90
2019-05-19T05:46:19.087Z,99.90
2019-05-19T05:48:46.521Z,99.90
2019-05-19T05:51:14.376Z,99.90
2019-05-19T05:53:42.093Z,99.90
2019-05-19T05:56:09.742Z,99.90
2019-05-19T05:58:37.282Z,99.90
2019-05-19T06:01:05.447Z,99.90
2019-05-19T06:03:33.194Z,99.90
2019-05-19T06:06:00.724Z,99.90
2019-05-19T06:08:28.293Z,99.90
2019-05-19T06:10:56.019Z,99.90
2019-05-19T06:13:24.047Z,99.90
2019-05-19T06:15:51.618Z,99.90
2019-05-19T06:18:19.412Z,99.90
2019-05-19T06:20:46.837Z,99.90
2019-05-19T06:23:14.515Z,99.90
2019-05-19T06:25:42.018Z,99.90
2019-05-19T06:28:09.989Z,99.90
2019-05-19T06:30:37.929Z,99.90
2019-05-19T06:33:05.833Z,99.90
2019-05-19T06:35:33.787Z,99.90
2019-05-19T06:38:01.449Z,99.90
2019-05-19T06:40:29.224Z,99.90
2019-05-19T06:42:56.769Z,99.90
2019-05-19T06:45:24.809Z,99.90
2019-05-19T06:47:52.261Z,99.90
2019-05-19T06:50:20.344Z,99.90
2019-05-19T06:52:48.561Z,99.90
2019-05-19T06:55:16.377Z,99.90
2019-05-19T06:57:43.983Z,99.90
2019-05-19T07:00:11.905Z,99.90
2019-05-19T07:02:40.298Z,99.90
2019-05-19T07:05:08.761Z,99.90
2019-05-19T07:07:36.539Z,99.90
2019-05-19T07:10:05.100Z,99.90
2019-05-19T07:12:33.526Z,99.90
2019-05-19T07:15:01.450Z,99.90
2019-05-19T07:17:29.003Z,99.90
2019-05-19T07:19:56.777Z,99.90
2019-05-19T07:22:24.724Z,99.90
2019-05-19T07:24:52.303Z,99.90
2019-05-19T07:27:20.177Z,99.90
2019-05-19T07:29:47.721Z,99.90
2019-05-19T07:32:15.223Z,99.90
2019-05-19T07:34:43.214Z,99.90
2019-05-19T07:37:11.347Z,99.90
2019-05-19T07:39:39.133Z,99.90
2019-05-19T07:42:06.984Z,99.90
2019-05-19T07:44:34.629Z,99.90
2019-05-19T07:47:02.041Z,99.90
2019-05-19T07:49:29.839Z,99.90
2019-05-19T07:51:58.092Z,99.90
2019-05-19T07:54:25.857Z,99.90
2019-05-19T07:56:53.606Z,99.90
2019-05-19T07:59:21.686Z,99.90
2019-05-19T08:01:49.166Z,99.90
2019-05-19T08:04:16.711Z,99.90
2019-05-19T08:06:45.038Z,99.90
2019-05-19T08:09:12.931Z,99.90
2019-05-19T08:11:41.321Z,99.90
2019-05-19T08:14:09.627Z,99.90
2019-05-19T08:16:37.739Z,99.90
2019-05-19T08:19:05.530Z,99.90
2019-05-19T08:21:33.060Z,99.90
2019-05-19T08:24:01.282Z,99.90
2019-05-19T08:26:29.320Z,99.90
2019-05-19T08:28:57.018Z,99.90
2019-05-19T08:31:26.009Z,99.90
2019-05-19T08:33:53.467Z,99.90
2019-05-19T08:36:21.721Z,99.60
2019-05-19T08:38:49.296Z,99.10
2019-05-19T08:41:17.064Z,98.20
2019-05-19T08:43:44.831Z,99.70
2019-05-19T08:46:12.563Z,99.10
2019-05-19T08:48:40.104Z,99.30
2019-05-19T08:51:07.865Z,99.30
2019-05-19T08:53:35.758Z,98.20
2019-05-19T08:56:03.910Z,97.80
2019-05-19T08:58:32.083Z,98.30
2019-05-19T09:01:00.372Z,97.70
2019-05-19T09:03:28.145Z,96.80
2019-05-19T09:05:56.132Z,98.60
2019-05-19T09:08:24.071Z,98.30
2019-05-19T09:10:53.864Z,97.80
2019-05-19T09:13:24.508Z,98.30
2019-05-19T09:15:52.421Z,97.80
2019-05-19T09:18:19.976Z,98.10
2019-05-19T09:20:48.337Z,98.10
2019-05-19T09:23:16.037Z,97.00
2019-05-19T09:25:43.621Z,95.20
2019-05-19T09:28:11.427Z,96.10
2019-05-19T09:30:38.936Z,95.90
2019-05-19T09:33:06.533Z,96.50
2019-05-19T09:35:34.485Z,94.60
2019-05-19T09:38:02.049Z,94.50
2019-05-19T09:40:29.511Z,94.60
2019-05-19T09:42:57.016Z,93.30
2019-05-19T09:45:24.456Z,93.20
2019-05-19T09:47:52.418Z,91.70
2019-05-19T09:50:20.145Z,91.70
2019-05-19T09:52:47.904Z,92.30
2019-05-19T09:55:15.601Z,92.90
2019-05-19T09:57:43.491Z,92.90
2019-05-19T10:00:11.485Z,92.80
2019-05-19T10:02:38.984Z,93.30
2019-05-19T10:05:07.536Z,93.80
2019-05-19T10:07:35.502Z,94.30
2019-05-19T10:10:07.121Z,93.60
2019-05-19T10:12:34.997Z,94.00
2019-05-19T10:15:03.427Z,94.80
2019-05-19T10:17:31.329Z,93.10
2019-05-19T10:19:59.338Z,95.20
2019-05-19T10:22:27.556Z,94.60
2019-05-19T10:25:19.994Z,94.20
2019-05-19T10:27:24.761Z,94.70
2019-05-19T10:29:53.367Z,93.60
2019-05-19T10:32:21.036Z,93.80
2019-05-19T10:34:48.953Z,93.50
2019-05-19T10:37:17.556Z,94.20
2019-05-19T10:39:45.383Z,93.30
2019-05-19T10:42:13.190Z,93.60
2019-05-19T10:44:40.883Z,92.90
2019-05-19T10:47:08.473Z,93.30
2019-05-19T10:49:36.426Z,93.70
2019-05-19T10:52:04.043Z,92.70
2019-05-19T10:54:31.636Z,91.20
2019-05-19T10:56:59.369Z,91.80
2019-05-19T10:59:27.712Z,91.00
2019-05-19T11:01:55.565Z,91.70
2019-05-19T11:04:23.062Z,92.60
2019-05-19T11:06:50.514Z,91.50
2019-05-19T11:09:18.004Z,91.20
2019-05-19T11:11:45.506Z,91.70
2019-05-19T11:14:12.947Z,90.20
2019-05-19T11:16:40.475Z,90.70
2019-05-19T11:19:08.197Z,89.70
2019-05-19T11:21:36.051Z,90.40
2019-05-19T11:24:03.999Z,89.50
2019-05-19T11:26:31.811Z,88.20
2019-05-19T11:28:59.392Z,86.30
2019-05-19T11:31:26.841Z,86.60
2019-05-19T11:33:54.754Z,81.50
2019-05-19T11:36:22.345Z,84.10
2019-05-19T11:38:50.271Z,79.90
2019-05-19T11:41:18.473Z,81.20
2019-05-19T11:43:46.229Z,78.00
2019-05-19T11:46:13.666Z,78.80
2019-05-19T11:48:41.208Z,73.10
2019-05-19T11:51:08.735Z,74.30
2019-05-19T11:53:36.881Z,72.90
2019-05-19T11:56:08.101Z,76.50
2019-05-19T11:58:35.887Z,71.60
2019-05-19T12:01:03.356Z,72.90
2019-05-19T12:03:31.427Z,72.70
2019-05-19T12:05:59.485Z,73.60
2019-05-19T12:08:27.317Z,68.70
2019-05-19T12:10:55.529Z,71.90
2019-05-19T12:13:23.161Z,72.90
2019-05-19T12:15:51.609Z,76.10
2019-05-19T12:18:19.480Z,74.10
2019-05-19T12:20:47.491Z,68.80
2019-05-19T12:23:15.040Z,71.30
2019-05-19T12:25:43.002Z,78.70
2019-05-19T12:28:10.586Z,80.50
2019-05-19T12:30:38.688Z,78.80
2019-05-19T12:33:06.621Z,80.30
2019-05-19T12:35:34.076Z,82.60
2019-05-19T12:38:02.209Z,83.00
2019-05-19T12:40:29.965Z,84.40
2019-05-19T12:42:57.803Z,81.70
2019-05-19T12:45:25.308Z,83.50
2019-05-19T12:47:52.858Z,84.10
2019-05-19T12:50:20.374Z,80.80
2019-05-19T12:52:48.005Z,82.80
2019-05-19T12:55:15.590Z,79.60
2019-05-19T12:57:43.698Z,77.30
2019-05-19T13:00:11.839Z,77.50
2019-05-19T13:02:39.405Z,76.80
2019-05-19T13:05:07.177Z,76.60
2019-05-19T13:07:35.023Z,73.80
2019-05-19T13:10:02.638Z,78.50
2019-05-19T13:12:30.067Z,76.10
2019-05-19T13:14:57.883Z,77.40
2019-05-19T13:17:25.577Z,78.30
2019-05-19T13:19:53.529Z,71.20
2019-05-19T13:22:21.608Z,74.20
2019-05-19T13:24:49.169Z,73.00
2019-05-19T13:27:16.677Z,71.60
2019-05-19T13:29:44.151Z,71.70
2019-05-19T13:32:11.635Z,70.60
2019-05-19T13:34:39.432Z,71.90
2019-05-19T13:37:06.868Z,65.90
2019-05-19T13:39:34.640Z,66.40
2019-05-19T13:42:02.077Z,68.20
2019-05-19T13:44:29.570Z,68.80
2019-05-19T13:46:57.910Z,71.60
2019-05-19T13:49:26.066Z,70.60
2019-05-19T13:51:53.766Z,67.00
2019-05-19T13:54:21.361Z,66.90
2019-05-19T13:56:49.527Z,67.00
2019-05-19T13:59:16.981Z,68.90
2019-05-19T14:01:44.656Z,68.80
2019-05-19T14:04:12.154Z,73.00
2019-05-19T14:06:39.651Z,70.30
2019-05-19T14:09:07.509Z,67.90
2019-05-19T14:11:36.567Z,67.80
2019-05-19T14:14:04.151Z,64.70
2019-05-19T14:16:32.128Z,63.90
2019-05-19T14:19:00.054Z,64.10
2019-05-19T14:21:28.353Z,65.30
2019-05-19T14:23:56.427Z,66.50
2019-05-19T14:26:24.795Z,65.60
2019-05-19T14:28:53.084Z,63.80
2019-05-19T14:31:21.084Z,61.60
2019-05-19T14:33:49.105Z,61.70
2019-05-19T14:36:16.849Z,64.60
2019-05-19T14:39:00.336Z,63.20
2019-05-19T14:41:33.514Z,63.30
2019-05-19T14:44:01.562Z,66.20
2019-05-19T14:46:29.850Z,64.10
2019-05-19T14:48:57.844Z,64.70
2019-05-19T14:51:25.591Z,64.70
2019-05-19T14:53:53.913Z,63.00
2019-05-19T14:56:21.569Z,63.60
2019-05-19T14:58:49.404Z,64.10
2019-05-19T15:01:18.687Z,65.60
2019-05-19T15:03:46.660Z,67.20
2019-05-19T15:06:14.810Z,68.50
2019-05-19T15:08:42.960Z,69.60
2019-05-19T15:11:11.086Z,68.50
2019-05-19T15:13:39.589Z,70.90
2019-05-19T15:16:07.776Z,73.80
2019-05-19T15:18:35.908Z,75.20
2019-05-19T15:21:03.684Z,74.10
2019-05-19T15:23:31.869Z,76.60
2019-05-19T15:26:00.465Z,73.60
2019-05-19T15:28:28.398Z,71.30
2019-05-19T15:30:56.415Z,68.70
2019-05-19T15:33:24.778Z,70.00
2019-05-19T15:35:52.461Z,66.30
2019-05-19T15:38:20.004Z,64.60
2019-05-19T15:40:47.500Z,63.80
2019-05-19T15:43:15.374Z,62.20
2019-05-19T15:45:43.219Z,62.60
2019-05-19T15:48:11.660Z,62.20
2019-05-19T15:50:39.199Z,61.20
2019-05-19T15:53:06.814Z,62.70
2019-05-19T15:55:38.423Z,63.30
2019-05-19T15:58:16.226Z,64.00
2019-05-19T16:00:35.891Z,62.20
2019-05-19T16:03:03.712Z,61.60
2019-05-19T16:05:31.452Z,62.30
2019-05-19T16:08:00.128Z,59.80
2019-05-19T16:10:27.821Z,60.10
2019-05-19T16:12:55.262Z,62.00
2019-05-19T16:15:23.150Z,62.40
2019-05-19T16:17:50.620Z,63.30
2019-05-19T16:20:18.134Z,62.40
2019-05-19T16:22:46.120Z,62.80
2019-05-19T16:25:13.746Z,63.70
2019-05-19T16:27:41.544Z,64.20
2019-05-19T16:30:09.534Z,65.00
2019-05-19T16:32:37.628Z,64.10
2019-05-19T16:35:05.748Z,64.00
2019-05-19T16:37:33.540Z,62.80
2019-05-19T16:40:01.645Z,62.20
2019-05-19T16:42:29.693Z,61.30
2019-05-19T16:44:57.805Z,60.50
2019-05-19T16:47:26.369Z,62.00
2019-05-19T16:49:54.179Z,60.50
2019-05-19T16:52:21.931Z,59.90
2019-05-19T16:55:09.240Z,57.80
2019-05-19T16:57:37.501Z,57.70
2019-05-19T17:00:05.066Z,56.80
2019-05-19T17:02:32.582Z,54.80
2019-05-19T17:05:00.105Z,55.20
2019-05-19T17:07:27.629Z,56.90
2019-05-19T17:09:55.063Z,58.10
2019-05-19T17:12:22.709Z,59.90
2019-05-19T17:14:50.529Z,63.70
2019-05-19T17:17:17.976Z,66.70
2019-05-19T17:19:45.770Z,64.10
2019-05-19T17:22:13.375Z,62.40
2019-05-19T17:24:41.307Z,63.20
2019-05-19T17:27:09.008Z,62.60
2019-05-19T17:29:36.549Z,63.30
2019-05-19T17:32:05.987Z,65.00
2019-05-19T17:34:33.474Z,66.50
2019-05-19T17:37:00.972Z,66.00
2019-05-19T17:39:28.974Z,67.00
2019-05-19T17:41:56.442Z,67.30
2019-05-19T17:44:24.383Z,68.70
2019-05-19T17:46:52.189Z,68.70
2019-05-19T17:49:19.745Z,69.70
2019-05-19T17:51:47.321Z,70.80
2019-05-19T17:54:20.165Z,70.60
2019-05-19T17:56:50.027Z,71.10
2019-05-19T17:59:17.704Z,71.30
2019-05-19T18:01:45.442Z,71.60
2019-05-19T18:04:13.263Z,71.60
2019-05-19T18:06:40.840Z,71.40
2019-05-19T18:09:08.638Z,71.20
2019-05-19T18:11:36.447Z,71.80
2019-05-19T18:14:04.093Z,72.20
2019-05-19T18:16:31.641Z,72.30
2019-05-19T18:18:59.127Z,72.90
2019-05-19T18:21:26.652Z,72.90
2019-05-19T18:23:55.705Z,74.20
2019-05-19T18:26:23.534Z,75.00
2019-05-19T18:28:51.259Z,76.70
2019-05-19T18:31:18.769Z,78.00
2019-05-19T18:33:47.102Z,79.00
2019-05-19T18:36:14.571Z,79.70
2019-05-19T18:38:42.250Z,80.70
2019-05-19T18:41:09.926Z,81.60
2019-05-19T18:43:37.589Z,82.80
2019-05-19T18:46:05.414Z,83.70
2019-05-19T18:48:32.927Z,85.00
2019-05-19T18:51:00.755Z,86.10
2019-05-19T18:53:28.909Z,87.10
2019-05-19T18:55:56.850Z,87.90
2019-05-19T18:58:24.342Z,88.20
2019-05-19T19:00:52.238Z,89.90
2019-05-19T19:03:20.170Z,90.30
2019-05-19T19:05:47.858Z,90.60
2019-05-19T19:08:15.351Z,90.80
2019-05-19T19:10:42.934Z,91.20
2019-05-19T19:13:10.515Z,91.50
2019-05-19T19:15:38.149Z,91.80
2019-05-19T19:18:06.102Z,92.10
2019-05-19T19:20:34.027Z,92.40
2019-05-19T19:23:01.624Z,92.80
2019-05-19T19:25:29.165Z,93.10
2019-05-19T19:27:56.653Z,93.20
2019-05-19T19:30:26.526Z,93.50
2019-05-19T19:32:54.421Z,93.80
2019-05-19T19:35:22.248Z,94.00
2019-05-19T19:37:50.077Z,94.10
2019-05-19T19:40:27.941Z,94.10
2019-05-19T19:42:55.667Z,94.10
2019-05-19T19:45:24.236Z,94.30
2019-05-19T19:47:51.976Z,94.50
2019-05-19T19:50:19.521Z,94.70
2019-05-19T19:52:47.212Z,94.90
2019-05-19T19:55:15.006Z,94.70
2019-05-19T19:57:42.488Z,95.60
2019-05-19T20:00:17.745Z,96.10
2019-05-19T20:02:40.569Z,96.50
2019-05-19T20:05:08.467Z,96.50
2019-05-19T20:07:36.508Z,96.90
2019-05-19T20:10:04.421Z,96.90
2019-05-19T20:12:32.247Z,96.80
2019-05-19T20:14:59.703Z,96.80
2019-05-19T20:17:29.029Z,96.60
2019-05-19T20:19:57.097Z,96.60
2019-05-19T20:22:24.909Z,96.60
2019-05-19T20:24:52.903Z,96.80
2019-05-19T20:27:20.354Z,96.80
2019-05-19T20:29:47.804Z,96.90
2019-05-19T20:32:15.378Z,97.10
2019-05-19T20:34:43.209Z,97.20
2019-05-19T20:37:11.405Z,97.20
2019-05-19T20:39:39.321Z,97.20
2019-05-19T20:42:07.001Z,97.40
2019-05-19T20:44:36.787Z,97.50
2019-05-19T20:47:04.331Z,97.50
2019-05-19T20:49:32.065Z,97.60
2019-05-19T20:52:00.575Z,97.70
2019-05-19T20:54:28.324Z,97.70
2019-05-19T20:56:56.417Z,97.80
2019-05-19T20:59:24.362Z,97.90
2019-05-19T21:01:52.206Z,98.00
2019-05-19T21:04:20.508Z,97.90
2019-05-19T21:06:48.042Z,97.90
2019-05-19T21:09:15.678Z,98.10
2019-05-19T21:11:43.181Z,98.20
2019-05-19T21:14:10.894Z,98.20
2019-05-19T21:16:38.739Z,98.10
2019-05-19T21:19:06.652Z,98.20
2019-05-19T21:21:34.153Z,98.40
2019-05-19T21:24:01.720Z,98.90
2019-05-19T21:26:29.307Z,99.10
2019-05-19T21:28:58.820Z,98.90
2019-05-19T21:31:26.457Z,98.90
2019-05-19T21:33:54.258Z,99.00
2019-05-19T21:36:21.963Z,99.10
2019-05-19T21:38:49.557Z,99.00
2019-05-19T21:41:17.432Z,99.10
2019-05-19T21:43:45.076Z,99.10
2019-05-19T21:46:13.207Z,99.00
2019-05-19T21:48:41.916Z,99.00
2019-05-19T21:51:09.518Z,98.90
2019-05-19T21:53:37.133Z,99.00
2019-05-19T21:56:04.736Z,98.90
2019-05-19T21:58:32.291Z,99.00
2019-05-19T22:00:59.874Z,99.60
2019-05-19T22:03:27.586Z,99.50
2019-05-19T22:05:55.916Z,99.90
2019-05-19T22:08:24.069Z,99.90
2019-05-19T22:10:51.669Z,99.80
2019-05-19T22:13:19.311Z,99.90
2019-05-19T22:15:46.914Z,99.90
2019-05-19T22:18:14.552Z,99.90
2019-05-19T22:20:45.575Z,99.90
2019-05-19T22:23:13.807Z,99.90
2019-05-19T22:25:41.629Z,99.90
2019-05-19T22:28:09.546Z,99.90
2019-05-19T22:30:37.559Z,99.80
2019-05-19T22:33:05.173Z,99.90
2019-05-19T22:35:32.815Z,99.90
2019-05-19T22:38:00.466Z,99.70
2019-05-19T22:40:28.589Z,99.90
2019-05-19T22:42:57.335Z,99.90
2019-05-19T22:45:24.903Z,99.90
2019-05-19T22:47:52.388Z,99.90
2019-05-19T22:50:20.124Z,99.90
2019-05-19T22:52:47.800Z,99.90
2019-05-19T22:55:15.562Z,99.90
2019-05-19T22:57:43.342Z,99.90
2019-05-19T23:00:12.338Z,99.90
2019-05-19T23:02:39.979Z,99.80
2019-05-19T23:05:08.102Z,99.90
2019-05-19T23:07:35.809Z,99.90
2019-05-19T23:10:04.582Z,99.70
2019-05-19T23:12:32.132Z,99.70
2019-05-19T23:14:59.681Z,99.60
2019-05-19T23:17:27.380Z,99.70
2019-05-19T23:19:54.918Z,99.60
2019-05-19T23:22:22.441Z,99.80
2019-05-19T23:24:50.076Z,99.80
2019-05-19T23:27:17.689Z,99.90
2019-05-19T23:29:45.662Z,99.70
2019-05-19T23:32:13.583Z,99.60
2019-05-19T23:34:41.428Z,99.70
2019-05-19T23:37:09.354Z,99.80
2019-05-19T23:39:36.953Z,99.80
2019-05-19T23:42:04.871Z,99.90
2019-05-19T23:44:32.751Z,99.90
2019-05-19T23:47:00.373Z,99.90
2019-05-19T23:49:28.091Z,99.90
2019-05-19T23:51:55.794Z,99.90
2019-05-19T23:54:23.316Z,99.90
2019-05-19T23:56:51.009Z,99.90
2019-05-19T23:59:18.653Z,99.90
